createdAt,value
2022-08-11T00:00:04.878Z,1014.81
2022-08-11T00:01:04.870Z,1014.82
2022-08-11T00:02:04.923Z,1014.86
2022-08-11T00:03:04.886Z,1014.83
2022-08-11T00:04:04.833Z,1014.81
2022-08-11T00:05:04.827Z,1014.83
2022-08-11T00:06:04.885Z,1014.86
2022-08-11T00:07:04.783Z,1014.87
2022-08-11T00:08:04.823Z,1014.85
2022-08-11T00:09:04.784Z,1014.87
2022-08-11T00:10:04.786Z,1014.85
2022-08-11T00:11:04.771Z,1014.83
2022-08-11T00:12:04.744Z,1014.82
2022-08-11T00:13:04.730Z,1014.81
2022-08-11T00:14:04.732Z,1014.85
2022-08-11T00:15:04.706Z,1014.83
2022-08-11T00:16:04.937Z,1014.84
2022-08-11T00:17:04.675Z,1014.83
2022-08-11T00:18:04.995Z,1014.84
2022-08-11T00:19:04.657Z,1014.80
2022-08-11T00:20:13.720Z,1014.82
2022-08-11T00:21:05.639Z,1014.81
2022-08-11T00:22:06.145Z,1014.83
2022-08-11T00:23:04.638Z,1014.80
2022-08-11T00:24:04.658Z,1014.77
2022-08-11T00:25:04.628Z,1014.78
2022-08-11T00:26:04.587Z,1014.76
2022-08-11T00:27:04.559Z,1014.79
2022-08-11T00:28:04.592Z,1014.73
2022-08-11T00:29:04.540Z,1014.75
2022-08-11T00:30:04.542Z,1014.75
2022-08-11T00:31:04.691Z,1014.82
2022-08-11T00:32:04.646Z,1014.76
2022-08-11T00:33:04.513Z,1014.75
2022-08-11T00:34:04.655Z,1014.80
2022-08-11T00:35:51.693Z,1014.79
2022-08-11T00:36:05.472Z,1014.81
2022-08-11T00:37:04.451Z,1014.79
2022-08-11T00:38:04.514Z,1014.81
2022-08-11T00:39:04.464Z,1014.77
2022-08-11T00:40:04.576Z,1014.80
2022-08-11T00:41:04.413Z,1014.82
2022-08-11T00:42:04.402Z,1014.77
2022-08-11T00:43:04.421Z,1014.78
2022-08-11T00:44:04.461Z,1014.78
2022-08-11T00:45:04.383Z,1014.79
2022-08-11T00:46:04.373Z,1014.77
2022-08-11T00:47:04.346Z,1014.78
2022-08-11T00:48:04.344Z,1014.78
2022-08-11T00:49:04.336Z,1014.75
2022-08-11T00:50:04.373Z,1014.79
2022-08-11T00:51:04.690Z,1014.77
2022-08-11T00:52:06.222Z,1014.77
2022-08-11T00:53:04.307Z,1014.84
2022-08-11T00:54:04.301Z,1014.81
2022-08-11T00:55:04.257Z,1014.81
2022-08-11T00:56:04.249Z,1014.83
2022-08-11T00:57:04.256Z,1014.86
2022-08-11T00:58:05.258Z,1014.82
2022-08-11T00:59:04.218Z,1014.86
2022-08-11T01:00:04.297Z,1014.83
2022-08-11T01:01:04.387Z,1014.85
2022-08-11T01:02:04.218Z,1014.84
2022-08-11T01:03:04.190Z,1014.78
2022-08-11T01:04:04.247Z,1014.87
2022-08-11T01:05:04.170Z,1014.82
2022-08-11T01:06:05.391Z,1014.79
2022-08-11T01:07:04.150Z,1014.84
2022-08-11T01:08:04.181Z,1014.85
2022-08-11T01:09:04.388Z,1014.83
2022-08-11T01:10:07.300Z,1014.88
2022-08-11T01:11:04.549Z,1014.81
2022-08-11T01:12:04.122Z,1014.84
2022-08-11T01:13:04.062Z,1014.87
2022-08-11T01:14:04.333Z,1014.85
2022-08-11T01:15:04.326Z,1014.83
2022-08-11T01:16:04.064Z,1014.87
2022-08-11T01:17:04.135Z,1014.86
2022-08-11T01:18:04.130Z,1014.87
2022-08-11T01:19:04.012Z,1014.83
2022-08-11T01:20:44.938Z,1014.85
2022-08-11T01:21:04.994Z,1014.87
2022-08-11T01:22:04.082Z,1014.86
2022-08-11T01:23:03.964Z,1014.87
2022-08-11T01:24:03.957Z,1014.89
2022-08-11T01:25:03.935Z,1014.88
2022-08-11T01:26:03.929Z,1014.89
2022-08-11T01:27:03.915Z,1014.89
2022-08-11T01:28:04.961Z,1014.88
2022-08-11T01:29:03.927Z,1014.87
2022-08-11T01:30:04.061Z,1014.83
2022-08-11T01:31:03.881Z,1014.84
2022-08-11T01:32:03.862Z,1014.81
2022-08-11T01:33:04.210Z,1014.88
2022-08-11T01:34:03.982Z,1014.87
2022-08-11T01:35:03.837Z,1014.82
2022-08-11T01:36:03.823Z,1014.89
2022-08-11T01:37:03.828Z,1014.87
2022-08-11T01:38:03.829Z,1014.88
2022-08-11T01:39:03.789Z,1014.85
2022-08-11T01:40:03.885Z,1014.84
2022-08-11T01:41:03.787Z,1014.82
2022-08-11T01:42:03.752Z,1014.82
2022-08-11T01:43:03.750Z,1014.81
2022-08-11T01:44:03.764Z,1014.86
2022-08-11T01:45:04.730Z,1014.85
2022-08-11T01:46:03.902Z,1014.84
2022-08-11T01:47:03.701Z,1014.84
2022-08-11T01:48:03.730Z,1014.88
2022-08-11T01:49:29.004Z,1014.87
2022-08-11T01:50:09.681Z,1014.88
2022-08-11T01:51:04.716Z,1014.89
2022-08-11T01:52:03.754Z,1014.88
2022-08-11T01:53:04.625Z,1014.87
2022-08-11T01:54:03.674Z,1014.86
2022-08-11T01:55:03.603Z,1014.89
2022-08-11T01:56:03.605Z,1014.84
2022-08-11T01:57:03.587Z,1014.90
2022-08-11T01:58:03.608Z,1014.90
2022-08-11T01:59:03.583Z,1014.89
2022-08-11T02:00:03.611Z,1014.88
2022-08-11T02:01:03.603Z,1014.89
2022-08-11T02:02:03.576Z,1014.91
2022-08-11T02:03:03.526Z,1014.94
2022-08-11T02:04:03.534Z,1014.93
2022-08-11T02:05:03.488Z,1014.90
2022-08-11T02:06:03.555Z,1014.92
2022-08-11T02:07:03.466Z,1014.91
2022-08-11T02:08:04.466Z,1014.94
2022-08-11T02:09:03.458Z,1014.93
2022-08-11T02:10:03.456Z,1014.91
2022-08-11T02:11:04.781Z,1014.89
2022-08-11T02:12:03.510Z,1014.89
2022-08-11T02:13:03.417Z,1014.88
2022-08-11T02:14:03.441Z,1014.92
2022-08-11T02:15:04.578Z,1014.92
2022-08-11T02:16:03.413Z,1014.90
2022-08-11T02:17:03.351Z,1014.91
2022-08-11T02:18:03.358Z,1014.92
2022-08-11T02:19:03.353Z,1014.88
2022-08-11T02:20:03.350Z,1014.90
2022-08-11T02:21:03.322Z,1014.91
2022-08-11T02:22:03.353Z,1014.90
2022-08-11T02:23:03.311Z,1014.86
2022-08-11T02:24:05.309Z,1014.88
2022-08-11T02:25:03.407Z,1014.89
2022-08-11T02:26:03.270Z,1014.88
2022-08-11T02:27:03.253Z,1014.90
2022-08-11T02:28:03.279Z,1014.86
2022-08-11T02:29:03.251Z,1014.87
2022-08-11T02:30:03.375Z,1014.88
2022-08-11T02:31:03.213Z,1014.96
2022-08-11T02:32:14.548Z,1014.94
2022-08-11T02:33:04.224Z,1014.99
2022-08-11T02:34:03.217Z,1015.00
2022-08-11T02:35:03.164Z,1014.99
2022-08-11T02:36:03.155Z,1015.00
2022-08-11T02:37:03.166Z,1014.97
2022-08-11T02:38:03.174Z,1014.96
2022-08-11T02:39:03.155Z,1014.95
2022-08-11T02:40:03.149Z,1014.96
2022-08-11T02:41:03.096Z,1014.96
2022-08-11T02:42:03.088Z,1014.93
2022-08-11T02:43:03.079Z,1014.93
2022-08-11T02:44:03.127Z,1014.93
2022-08-11T02:45:03.198Z,1014.95
2022-08-11T02:46:03.076Z,1014.93
2022-08-11T02:47:03.044Z,1014.93
2022-08-11T02:48:03.218Z,1014.88
2022-08-11T02:49:03.008Z,1014.91
2022-08-11T02:50:07.426Z,1014.84
2022-08-11T02:51:02.990Z,1014.87
2022-08-11T02:52:03.090Z,1014.87
2022-08-11T02:53:02.980Z,1014.85
2022-08-11T02:54:02.971Z,1014.91
2022-08-11T02:55:02.949Z,1014.88
2022-08-11T02:56:02.957Z,1014.87
2022-08-11T02:57:02.920Z,1014.89
2022-08-11T02:58:02.920Z,1014.86
2022-08-11T02:59:02.902Z,1014.88
2022-08-11T03:00:02.910Z,1014.86
2022-08-11T03:01:02.882Z,1014.87
2022-08-11T03:02:04.784Z,1014.83
2022-08-11T03:03:02.916Z,1014.90
2022-08-11T03:04:02.853Z,1014.89
2022-08-11T03:05:02.856Z,1014.89
2022-08-11T03:06:02.884Z,1014.92
2022-08-11T03:07:02.812Z,1014.94
2022-08-11T03:08:02.832Z,1014.97
2022-08-11T03:09:02.806Z,1014.92
2022-08-11T03:10:02.956Z,1014.96
2022-08-11T03:11:02.777Z,1014.92
2022-08-11T03:12:02.817Z,1014.93
2022-08-11T03:13:02.755Z,1014.92
2022-08-11T03:14:02.813Z,1014.91
2022-08-11T03:15:02.816Z,1014.93
2022-08-11T03:16:02.777Z,1014.91
2022-08-11T03:17:02.727Z,1014.92
2022-08-11T03:18:02.728Z,1014.91
2022-08-11T03:19:02.686Z,1014.89
2022-08-11T03:20:02.760Z,1014.92
2022-08-11T03:21:02.668Z,1014.91
2022-08-11T03:22:03.699Z,1014.91
2022-08-11T03:23:02.650Z,1014.90
2022-08-11T03:24:02.743Z,1014.92
2022-08-11T03:25:02.630Z,1014.88
2022-08-11T03:26:02.652Z,1014.87
2022-08-11T03:27:02.610Z,1014.87
2022-08-11T03:28:02.831Z,1014.86
2022-08-11T03:29:02.579Z,1014.89
2022-08-11T03:30:02.633Z,1014.87
2022-08-11T03:31:02.554Z,1014.87
2022-08-11T03:32:02.639Z,1014.88
2022-08-11T03:33:02.610Z,1014.86
2022-08-11T03:34:06.270Z,1014.82
2022-08-11T03:35:02.532Z,1014.87
2022-08-11T03:36:02.564Z,1014.85
2022-08-11T03:37:16.981Z,1014.87
2022-08-11T03:38:03.482Z,1014.90
2022-08-11T03:39:02.603Z,1014.95
2022-08-11T03:40:02.664Z,1014.93
2022-08-11T03:41:02.452Z,1014.93
2022-08-11T03:42:06.779Z,1014.95
2022-08-11T03:43:03.443Z,1014.94
2022-08-11T03:44:02.420Z,1014.96
2022-08-11T03:45:02.432Z,1014.94
2022-08-11T03:46:02.542Z,1014.91
2022-08-11T03:47:02.385Z,1014.91
2022-08-11T03:48:02.464Z,1014.89
2022-08-11T03:49:02.362Z,1014.91
2022-08-11T03:50:02.374Z,1014.89
2022-08-11T03:51:02.365Z,1014.92
2022-08-11T03:52:02.359Z,1014.92
2022-08-11T03:53:02.317Z,1014.95
2022-08-11T03:54:02.306Z,1014.91
2022-08-11T03:55:02.296Z,1014.93
2022-08-11T03:56:02.485Z,1014.89
2022-08-11T03:57:02.278Z,1014.89
2022-08-11T03:58:02.406Z,1014.93
2022-08-11T03:59:02.246Z,1014.91
2022-08-11T04:00:02.328Z,1014.91
2022-08-11T04:01:02.273Z,1014.93
2022-08-11T04:02:02.295Z,1014.92
2022-08-11T04:03:02.229Z,1014.93
2022-08-11T04:04:02.258Z,1014.96
2022-08-11T04:05:02.261Z,1014.95
2022-08-11T04:06:02.279Z,1014.95
2022-08-11T04:07:02.151Z,1014.93
2022-08-11T04:08:02.240Z,1014.93
2022-08-11T04:09:02.142Z,1014.96
2022-08-11T04:10:02.131Z,1014.92
2022-08-11T04:11:02.141Z,1014.97
2022-08-11T04:12:02.101Z,1014.97
2022-08-11T04:13:02.093Z,1015.00
2022-08-11T04:14:02.202Z,1014.99
2022-08-11T04:15:02.071Z,1014.98
2022-08-11T04:16:11.251Z,1014.96
2022-08-11T04:17:03.041Z,1014.96
2022-08-11T04:18:02.042Z,1015.00
2022-08-11T04:19:02.046Z,1014.97
2022-08-11T04:20:02.054Z,1014.99
2022-08-11T04:21:02.005Z,1014.95
2022-08-11T04:22:02.063Z,1014.96
2022-08-11T04:23:01.974Z,1014.96
2022-08-11T04:24:35.439Z,1014.98
2022-08-11T04:25:02.954Z,1014.99
2022-08-11T04:26:01.948Z,1014.97
2022-08-11T04:27:04.909Z,1014.99
2022-08-11T04:28:01.981Z,1014.98
2022-08-11T04:29:01.915Z,1014.95
2022-08-11T04:30:04.902Z,1014.96
2022-08-11T04:31:01.897Z,1014.97
2022-08-11T04:32:01.928Z,1015.00
2022-08-11T04:33:01.877Z,1015.00
2022-08-11T04:34:01.937Z,1014.98
2022-08-11T04:35:01.875Z,1014.97
2022-08-11T04:36:01.935Z,1014.98
2022-08-11T04:37:01.841Z,1015.01
2022-08-11T04:38:01.826Z,1015.02
2022-08-11T04:39:01.846Z,1015.03
2022-08-11T04:40:01.827Z,1015.04
2022-08-11T04:41:01.800Z,1015.04
2022-08-11T04:42:01.788Z,1015.02
2022-08-11T04:43:01.762Z,1015.05
2022-08-11T04:44:04.544Z,1015.02
2022-08-11T04:45:01.741Z,1015.04
2022-08-11T04:46:01.738Z,1015.07
2022-08-11T04:47:01.719Z,1015.06
2022-08-11T04:48:04.328Z,1015.05
2022-08-11T04:49:01.708Z,1015.05
2022-08-11T04:50:01.691Z,1015.07
2022-08-11T04:51:16.596Z,1015.08
2022-08-11T04:52:02.666Z,1015.10
2022-08-11T04:53:01.645Z,1015.13
2022-08-11T04:54:01.682Z,1015.17
2022-08-11T04:55:01.621Z,1015.18
2022-08-11T04:56:01.712Z,1015.15
2022-08-11T04:57:01.623Z,1015.17
2022-08-11T04:58:01.612Z,1015.21
2022-08-11T04:59:01.575Z,1015.22
2022-08-11T05:00:01.585Z,1015.20
2022-08-11T05:01:01.565Z,1015.17
2022-08-11T05:02:01.711Z,1015.21
2022-08-11T05:03:01.538Z,1015.17
2022-08-11T05:04:01.535Z,1015.24
2022-08-11T05:05:01.530Z,1015.18
2022-08-11T05:06:01.539Z,1015.21
2022-08-11T05:07:01.506Z,1015.21
2022-08-11T05:08:01.494Z,1015.23
2022-08-11T05:09:01.466Z,1015.23
2022-08-11T05:10:01.466Z,1015.23
2022-08-11T05:11:01.456Z,1015.23
2022-08-11T05:12:01.936Z,1015.26
2022-08-11T05:13:01.426Z,1015.26
2022-08-11T05:14:01.425Z,1015.25
2022-08-11T05:15:01.398Z,1015.27
2022-08-11T05:16:01.396Z,1015.27
2022-08-11T05:17:01.438Z,1015.24
2022-08-11T05:18:01.379Z,1015.25
2022-08-11T05:19:01.379Z,1015.22
2022-08-11T05:20:01.358Z,1015.19
2022-08-11T05:21:04.857Z,1015.22
2022-08-11T05:22:01.339Z,1015.19
2022-08-11T05:23:01.330Z,1015.19
2022-08-11T05:24:01.333Z,1015.17
2022-08-11T05:25:01.387Z,1015.17
2022-08-11T05:26:46.973Z,1015.17
2022-08-11T05:27:02.300Z,1015.22
2022-08-11T05:28:01.260Z,1015.21
2022-08-11T05:29:01.253Z,1015.22
2022-08-11T05:30:02.251Z,1015.21
2022-08-11T05:31:01.243Z,1015.22
2022-08-11T05:32:01.232Z,1015.24
2022-08-11T05:33:02.406Z,1015.22
2022-08-11T05:34:01.208Z,1015.22
2022-08-11T05:35:01.185Z,1015.26
2022-08-11T05:36:03.304Z,1015.24
2022-08-11T05:37:23.947Z,1015.26
2022-08-11T05:38:02.174Z,1015.26
2022-08-11T05:39:01.133Z,1015.29
2022-08-11T05:40:01.208Z,1015.29
2022-08-11T05:41:01.135Z,1015.32
2022-08-11T05:42:01.155Z,1015.31
2022-08-11T05:43:01.094Z,1015.30
2022-08-11T05:44:20.005Z,1015.32
2022-08-11T05:45:02.076Z,1015.33
2022-08-11T05:46:03.431Z,1015.34
2022-08-11T05:47:01.081Z,1015.34
2022-08-11T05:48:01.057Z,1015.30
2022-08-11T05:49:01.045Z,1015.33
2022-08-11T05:50:01.080Z,1015.35
2022-08-11T05:51:01.016Z,1015.35
2022-08-11T05:52:05.406Z,1015.34
2022-08-11T05:53:01.986Z,1015.36
2022-08-11T05:54:00.977Z,1015.35
2022-08-11T05:55:06.939Z,1015.34
2022-08-11T05:56:03.703Z,1015.34
2022-08-11T05:57:00.947Z,1015.36
2022-08-11T05:58:00.991Z,1015.36
2022-08-11T05:59:00.915Z,1015.39
2022-08-11T06:00:00.918Z,1015.37
2022-08-11T06:01:00.921Z,1015.33
2022-08-11T06:02:00.982Z,1015.34
2022-08-11T06:03:00.967Z,1015.31
2022-08-11T06:04:00.865Z,1015.31
2022-08-11T06:05:00.861Z,1015.35
2022-08-11T06:06:00.849Z,1015.30
2022-08-11T06:07:00.828Z,1015.36
2022-08-11T06:08:00.854Z,1015.34
2022-08-11T06:09:00.832Z,1015.39
2022-08-11T06:10:00.836Z,1015.36
2022-08-11T06:11:00.795Z,1015.35
2022-08-11T06:12:00.783Z,1015.35
2022-08-11T06:13:00.773Z,1015.35
2022-08-11T06:14:00.773Z,1015.38
2022-08-11T06:15:00.757Z,1015.38
2022-08-11T06:16:06.303Z,1015.35
2022-08-11T06:17:01.715Z,1015.32
2022-08-11T06:18:00.726Z,1015.31
2022-08-11T06:19:00.694Z,1015.35
2022-08-11T06:20:05.538Z,1015.35
2022-08-11T06:21:01.692Z,1015.36
2022-08-11T06:22:00.664Z,1015.35
2022-08-11T06:23:00.677Z,1015.32
2022-08-11T06:24:00.728Z,1015.32
2022-08-11T06:25:00.956Z,1015.30
2022-08-11T06:26:00.768Z,1015.31
2022-08-11T06:27:12.494Z,1015.28
2022-08-11T06:28:01.643Z,1015.30
2022-08-11T06:29:00.600Z,1015.31
2022-08-11T06:30:00.581Z,1015.31
2022-08-11T06:31:00.568Z,1015.31
2022-08-11T06:32:00.601Z,1015.38
2022-08-11T06:33:00.554Z,1015.39
2022-08-11T06:34:00.532Z,1015.44
2022-08-11T06:35:00.523Z,1015.43
2022-08-11T06:36:00.543Z,1015.43
2022-08-11T06:37:00.541Z,1015.43
2022-08-11T06:38:00.492Z,1015.39
2022-08-11T06:39:00.473Z,1015.44
2022-08-11T06:40:00.557Z,1015.43
2022-08-11T06:41:00.464Z,1015.43
2022-08-11T06:42:00.456Z,1015.43
2022-08-11T06:43:00.435Z,1015.41
2022-08-11T06:44:05.093Z,1015.38
2022-08-11T06:45:01.421Z,1015.42
2022-08-11T06:46:00.397Z,1015.40
2022-08-11T06:47:00.437Z,1015.40
2022-08-11T06:48:00.388Z,1015.43
2022-08-11T06:49:00.373Z,1015.40
2022-08-11T06:50:00.370Z,1015.40
2022-08-11T06:51:00.354Z,1015.39
2022-08-11T06:52:00.652Z,1015.40
2022-08-11T06:53:00.330Z,1015.41
2022-08-11T06:54:04.327Z,1015.38
2022-08-11T06:55:00.312Z,1015.35
2022-08-11T06:56:00.334Z,1015.38
2022-08-11T06:57:28.945Z,1015.38
2022-08-11T06:58:01.290Z,1015.35
2022-08-11T06:59:00.297Z,1015.37
2022-08-11T07:00:00.369Z,1015.39
2022-08-11T07:01:00.264Z,1015.42
2022-08-11T07:02:00.306Z,1015.38
2022-08-11T07:03:00.246Z,1015.41
2022-08-11T07:04:00.204Z,1015.41
2022-08-11T07:05:00.207Z,1015.41
2022-08-11T07:06:00.195Z,1015.46
2022-08-11T07:07:00.179Z,1015.44
2022-08-11T07:08:00.216Z,1015.43
2022-08-11T07:09:01.158Z,1015.43
2022-08-11T07:10:00.180Z,1015.45
2022-08-11T07:11:00.136Z,1015.41
2022-08-11T07:12:00.128Z,1015.40
2022-08-11T07:13:00.122Z,1015.34
2022-08-11T07:14:00.101Z,1015.38
2022-08-11T07:15:00.767Z,1015.35
2022-08-11T07:16:12.655Z,1015.37
2022-08-11T07:17:01.080Z,1015.36
2022-08-11T07:18:00.078Z,1015.30
2022-08-11T07:19:00.057Z,1015.36
2022-08-11T07:20:00.065Z,1015.35
2022-08-11T07:21:02.313Z,1015.34
2022-08-11T07:22:03.570Z,1015.33
2022-08-11T07:23:00.019Z,1015.34
2022-08-11T07:24:00.059Z,1015.34
2022-08-11T07:25:02.519Z,1015.37
2022-08-11T07:25:59.995Z,1015.37
2022-08-11T07:27:00.006Z,1015.39
2022-08-11T07:27:59.966Z,1015.36
2022-08-11T07:29:00.108Z,1015.36
2022-08-11T07:30:00.029Z,1015.39
2022-08-11T07:30:59.969Z,1015.35
2022-08-11T07:31:59.945Z,1015.31
2022-08-11T07:32:59.951Z,1015.27
2022-08-11T07:34:07.984Z,1015.33
2022-08-11T07:35:00.972Z,1015.31
2022-08-11T07:35:59.953Z,1015.29
2022-08-11T07:36:59.983Z,1015.26
2022-08-11T07:38:02.257Z,1015.25
2022-08-11T07:38:59.863Z,1015.29
2022-08-11T07:39:59.977Z,1015.23
2022-08-11T07:40:59.823Z,1015.31
2022-08-11T07:41:59.807Z,1015.28
2022-08-11T07:42:59.806Z,1015.26
2022-08-11T07:43:59.784Z,1015.30
2022-08-11T07:44:59.784Z,1015.27
2022-08-11T07:45:59.762Z,1015.25
2022-08-11T07:46:59.756Z,1015.24
2022-08-11T07:47:59.765Z,1015.23
2022-08-11T07:48:59.728Z,1015.19
2022-08-11T07:49:59.768Z,1015.19
2022-08-11T07:50:59.709Z,1015.25
2022-08-11T07:51:59.728Z,1015.23
2022-08-11T07:52:59.708Z,1015.20
2022-08-11T07:54:07.649Z,1015.21
2022-08-11T07:55:00.682Z,1015.21
2022-08-11T07:55:59.677Z,1015.21
2022-08-11T07:57:08.923Z,1015.27
2022-08-11T07:58:16.455Z,1015.26
2022-08-11T07:59:05.216Z,1015.24
2022-08-11T08:00:04.753Z,1015.23
2022-08-11T08:01:01.240Z,1015.25
2022-08-11T08:01:59.653Z,1015.26
2022-08-11T08:02:59.601Z,1015.25
2022-08-11T08:03:59.605Z,1015.27
2022-08-11T08:04:59.565Z,1015.23
2022-08-11T08:05:59.594Z,1015.22
2022-08-11T08:06:59.557Z,1015.24
2022-08-11T08:07:59.566Z,1015.28
2022-08-11T08:08:59.540Z,1015.24
2022-08-11T08:09:59.523Z,1015.27
2022-08-11T08:10:59.549Z,1015.30
2022-08-11T08:11:59.509Z,1015.28
2022-08-11T08:12:59.490Z,1015.30
2022-08-11T08:13:59.489Z,1015.24
2022-08-11T08:14:59.468Z,1015.28
2022-08-11T08:15:59.511Z,1015.26
2022-08-11T08:16:59.453Z,1015.28
2022-08-11T08:18:20.641Z,1015.25
2022-08-11T08:19:00.434Z,1015.25
2022-08-11T08:19:59.422Z,1015.23
2022-08-11T08:20:59.407Z,1015.26
2022-08-11T08:22:04.319Z,1015.23
2022-08-11T08:23:00.404Z,1015.26
2022-08-11T08:23:59.396Z,1015.27
2022-08-11T08:24:59.426Z,1015.26
2022-08-11T08:25:59.389Z,1015.23
2022-08-11T08:26:59.356Z,1015.24
2022-08-11T08:27:59.347Z,1015.24
2022-08-11T08:28:59.357Z,1015.25
2022-08-11T08:29:59.327Z,1015.27
2022-08-11T08:30:59.326Z,1015.20
2022-08-11T08:31:59.323Z,1015.16
2022-08-11T08:32:59.290Z,1015.22
2022-08-11T08:33:59.301Z,1015.20
2022-08-11T08:34:59.288Z,1015.20
2022-08-11T08:35:59.272Z,1015.14
2022-08-11T08:36:59.255Z,1015.17
2022-08-11T08:37:59.297Z,1015.15
2022-08-11T08:38:59.262Z,1015.12
2022-08-11T08:39:59.299Z,1015.07
2022-08-11T08:40:59.228Z,1015.10
2022-08-11T08:41:59.233Z,1015.11
2022-08-11T08:42:59.193Z,1015.11
2022-08-11T08:44:15.123Z,1015.11
2022-08-11T08:45:00.178Z,1015.08
2022-08-11T08:45:59.176Z,1015.10
2022-08-11T08:46:59.171Z,1015.11
2022-08-11T08:47:59.178Z,1015.06
2022-08-11T08:48:59.146Z,1015.07
2022-08-11T08:49:59.145Z,1015.06
2022-08-11T08:50:59.130Z,1015.04
2022-08-11T08:52:18.651Z,1015.08
2022-08-11T08:53:00.099Z,1015.06
2022-08-11T08:53:59.110Z,1015.08
2022-08-11T08:54:59.083Z,1015.07
2022-08-11T08:55:59.082Z,1015.05
2022-08-11T08:56:59.069Z,1015.02
2022-08-11T08:57:59.058Z,1015.00
2022-08-11T08:58:59.062Z,1015.02
2022-08-11T08:59:59.050Z,1015.05
2022-08-11T09:00:59.078Z,1015.01
2022-08-11T09:01:59.023Z,1014.98
2022-08-11T09:02:59.024Z,1015.04
2022-08-11T09:04:05.304Z,1015.05
2022-08-11T09:05:00.002Z,1015.02
2022-08-11T09:05:58.987Z,1015.08
2022-08-11T09:06:58.974Z,1015.01
2022-08-11T09:07:58.968Z,1015.04
2022-08-11T09:08:58.977Z,1015.07
2022-08-11T09:09:58.958Z,1015.02
2022-08-11T09:10:58.938Z,1015.03
2022-08-11T09:11:58.988Z,1015.02
2022-08-11T09:12:58.931Z,1015.09
2022-08-11T09:14:05.017Z,1015.04
2022-08-11T09:14:59.935Z,1015.06
2022-08-11T09:15:58.907Z,1015.08
2022-08-11T09:16:58.870Z,1015.09
2022-08-11T09:17:58.889Z,1015.07
2022-08-11T09:18:58.852Z,1015.03
2022-08-11T09:19:58.878Z,1015.03
2022-08-11T09:20:58.842Z,1015.07
2022-08-11T09:21:58.840Z,1015.01
2022-08-11T09:23:41.422Z,1015.03
2022-08-11T09:24:08.014Z,1015.06
2022-08-11T09:24:59.814Z,1015.03
2022-08-11T09:25:58.809Z,1015.04
2022-08-11T09:26:58.785Z,1015.03
2022-08-11T09:27:58.784Z,1015.04
2022-08-11T09:28:58.823Z,1015.05
2022-08-11T09:29:58.786Z,1015.05
2022-08-11T09:30:58.747Z,1015.04
2022-08-11T09:31:58.753Z,1015.03
2022-08-11T09:32:58.738Z,1014.99
2022-08-11T09:33:58.726Z,1015.00
2022-08-11T09:34:58.729Z,1015.00
2022-08-11T09:35:58.710Z,1015.01
2022-08-11T09:36:58.703Z,1014.97
2022-08-11T09:37:59.057Z,1014.97
2022-08-11T09:38:58.733Z,1014.99
2022-08-11T09:39:58.914Z,1014.99
2022-08-11T09:40:58.672Z,1014.93
2022-08-11T09:42:02.979Z,1014.90
2022-08-11T09:42:59.641Z,1014.89
2022-08-11T09:44:03.494Z,1014.84
2022-08-11T09:45:00.963Z,1014.84
2022-08-11T09:45:58.683Z,1014.85
2022-08-11T09:46:58.627Z,1014.80
2022-08-11T09:47:58.604Z,1014.83
2022-08-11T09:48:58.585Z,1014.80
2022-08-11T09:49:58.595Z,1014.79
2022-08-11T09:50:58.575Z,1014.75
2022-08-11T09:52:02.077Z,1014.72
2022-08-11T09:53:37.292Z,1014.73
2022-08-11T09:54:02.829Z,1014.73
2022-08-11T09:54:58.545Z,1014.72
2022-08-11T09:55:58.544Z,1014.71
2022-08-11T09:57:03.266Z,1014.70
2022-08-11T09:57:59.511Z,1014.72
2022-08-11T09:58:58.519Z,1014.68
2022-08-11T10:00:12.317Z,1014.64
2022-08-11T10:00:59.585Z,1014.65
2022-08-11T10:01:58.473Z,1014.66
2022-08-11T10:02:58.472Z,1014.64
2022-08-11T10:03:58.508Z,1014.61
2022-08-11T10:04:58.570Z,1014.62
2022-08-11T10:05:58.444Z,1014.60
2022-08-11T10:06:58.450Z,1014.57
2022-08-11T10:07:58.433Z,1014.53
2022-08-11T10:08:58.423Z,1014.54
2022-08-11T10:09:58.434Z,1014.50
2022-08-11T10:10:58.418Z,1014.54
2022-08-11T10:11:58.704Z,1014.56
2022-08-11T10:12:58.385Z,1014.52
2022-08-11T10:14:33.407Z,1014.49
2022-08-11T10:14:59.385Z,1014.49
2022-08-11T10:15:59.891Z,1014.54
2022-08-11T10:16:59.370Z,1014.49
2022-08-11T10:17:58.347Z,1014.45
2022-08-11T10:18:58.339Z,1014.47
2022-08-11T10:20:05.116Z,1014.47
2022-08-11T10:20:59.319Z,1014.43
2022-08-11T10:21:58.299Z,1014.46
2022-08-11T10:22:58.309Z,1014.43
2022-08-11T10:24:01.048Z,1014.39
2022-08-11T10:24:59.292Z,1014.39
2022-08-11T10:25:58.280Z,1014.37
2022-08-11T10:26:58.281Z,1014.34
2022-08-11T10:28:17.086Z,1014.34
2022-08-11T10:29:12.710Z,1014.33
2022-08-11T10:29:59.611Z,1014.34
2022-08-11T10:30:58.243Z,1014.32
2022-08-11T10:32:04.292Z,1014.32
2022-08-11T10:32:59.968Z,1014.34
2022-08-11T10:33:59.293Z,1014.29
2022-08-11T10:34:58.214Z,1014.26
2022-08-11T10:35:58.185Z,1014.23
2022-08-11T10:36:58.188Z,1014.25
2022-08-11T10:38:07.517Z,1014.17
2022-08-11T10:38:59.176Z,1014.21
2022-08-11T10:39:58.233Z,1014.25
2022-08-11T10:40:58.146Z,1014.27
2022-08-11T10:42:06.101Z,1014.26
2022-08-11T10:42:59.360Z,1014.25
2022-08-11T10:44:02.959Z,1014.24
2022-08-11T10:44:59.127Z,1014.18
2022-08-11T10:45:58.125Z,1014.19
2022-08-11T10:46:58.112Z,1014.22
2022-08-11T10:47:58.098Z,1014.23
2022-08-11T10:48:58.091Z,1014.15
2022-08-11T10:49:58.131Z,1014.13
2022-08-11T10:50:58.082Z,1014.14
2022-08-11T10:51:58.838Z,1014.09
2022-08-11T10:52:58.062Z,1014.09
2022-08-11T10:53:58.042Z,1014.12
2022-08-11T10:54:58.041Z,1014.06
2022-08-11T10:55:58.426Z,1014.05
2022-08-11T10:56:58.023Z,1014.03
2022-08-11T10:58:04.655Z,1014.08
2022-08-11T10:59:03.452Z,1014.04
2022-08-11T10:59:59.004Z,1014.07
2022-08-11T11:00:58.017Z,1014.00
2022-08-11T11:01:57.981Z,1014.03
2022-08-11T11:03:22.185Z,1014.05
2022-08-11T11:03:59.027Z,1014.06
2022-08-11T11:04:57.957Z,1014.02
2022-08-11T11:06:28.163Z,1013.95
2022-08-11T11:06:58.948Z,1013.90
2022-08-11T11:07:57.927Z,1013.87
2022-08-11T11:09:03.673Z,1013.86
2022-08-11T11:09:58.906Z,1013.86
2022-08-11T11:10:57.989Z,1013.83
2022-08-11T11:11:57.898Z,1013.86
2022-08-11T11:12:57.897Z,1013.77
2022-08-11T11:13:57.889Z,1013.81
2022-08-11T11:14:59.144Z,1013.79
2022-08-11T11:15:57.868Z,1013.81
2022-08-11T11:16:57.858Z,1013.77
2022-08-11T11:17:57.858Z,1013.80
2022-08-11T11:19:00.701Z,1013.77
2022-08-11T11:19:57.848Z,1013.78
2022-08-11T11:20:57.838Z,1013.72
2022-08-11T11:21:57.811Z,1013.71
2022-08-11T11:22:57.811Z,1013.72
2022-08-11T11:23:57.791Z,1013.67
2022-08-11T11:24:57.792Z,1013.71
2022-08-11T11:25:57.783Z,1013.67
2022-08-11T11:26:57.774Z,1013.59
2022-08-11T11:27:57.762Z,1013.57
2022-08-11T11:28:57.765Z,1013.58
2022-08-11T11:29:57.749Z,1013.55
2022-08-11T11:30:57.745Z,1013.52
2022-08-11T11:31:57.723Z,1013.51
2022-08-11T11:32:57.734Z,1013.51
2022-08-11T11:34:06.746Z,1013.56
2022-08-11T11:34:58.716Z,1013.53
2022-08-11T11:35:57.715Z,1013.49
2022-08-11T11:36:57.686Z,1013.49
2022-08-11T11:38:05.027Z,1013.47
2022-08-11T11:38:58.694Z,1013.43
2022-08-11T11:39:57.662Z,1013.52
2022-08-11T11:40:57.680Z,1013.57
2022-08-11T11:41:57.660Z,1013.55
2022-08-11T11:42:57.640Z,1013.57
2022-08-11T11:43:57.637Z,1013.54
2022-08-11T11:45:00.480Z,1013.52
2022-08-11T11:45:57.642Z,1013.49
2022-08-11T11:46:57.605Z,1013.46
2022-08-11T11:47:57.590Z,1013.41
2022-08-11T11:48:57.581Z,1013.46
2022-08-11T11:49:57.608Z,1013.44
2022-08-11T11:50:58.611Z,1013.45
2022-08-11T11:51:57.629Z,1013.46
2022-08-11T11:52:57.561Z,1013.47
2022-08-11T11:53:57.583Z,1013.43
2022-08-11T11:54:57.544Z,1013.38
2022-08-11T11:55:59.130Z,1013.39
2022-08-11T11:56:57.522Z,1013.39
2022-08-11T11:57:59.024Z,1013.41
2022-08-11T11:58:57.522Z,1013.37
2022-08-11T11:59:57.495Z,1013.37
2022-08-11T12:00:57.515Z,1013.35
2022-08-11T12:01:57.486Z,1013.34
2022-08-11T12:02:57.545Z,1013.32
2022-08-11T12:03:57.486Z,1013.33
2022-08-11T12:04:57.477Z,1013.35